sensor_id;sensor_type;location;lat;lon;timestamp;P1;durP1;ratioP1;P2;durP2;ratioP2
65130;SDS011;51709;54.912;8.316;2024-01-10T00:01:47;3.50;;;2.70;;
65130;SDS011;51709;54.912;8.316;2024-01-10T00:07:07;3.78;;;2.58;;
65130;SDS011;51709;54.912;8.316;2024-01-10T00:12:28;6.22;;;2.65;;
65130;SDS011;51709;54.912;8.316;2024-01-10T00:17:53;3.35;;;2.65;;
65130;SDS011;51709;54.912;8.316;2024-01-10T00:23:14;2.10;;;1.90;;
65130;SDS011;51709;54.912;8.316;2024-01-10T00:43:32;1.98;;;1.75;;
65130;SDS011;51709;54.912;8.316;2024-01-10T00:48:52;4.72;;;2.42;;
65130;SDS011;51709;54.912;8.316;2024-01-10T00:54:12;4.38;;;2.20;;
65130;SDS011;51709;54.912;8.316;2024-01-10T00:59:33;3.65;;;2.28;;
65130;SDS011;51709;54.912;8.316;2024-01-10T01:04:53;2.42;;;2.10;;
65130;SDS011;51709;54.912;8.316;2024-01-10T01:10:14;2.85;;;2.25;;
65130;SDS011;51709;54.912;8.316;2024-01-10T01:15:34;6.35;;;1.85;;
65130;SDS011;51709;54.912;8.316;2024-01-10T01:20:55;2.10;;;1.70;;
65130;SDS011;51709;54.912;8.316;2024-01-10T01:26:15;5.15;;;2.25;;
65130;SDS011;51709;54.912;8.316;2024-01-10T01:31:36;2.45;;;1.75;;
65130;SDS011;51709;54.912;8.316;2024-01-10T01:36:57;3.40;;;1.92;;
65130;SDS011;51709;54.912;8.316;2024-01-10T01:42:18;2.30;;;1.90;;
65130;SDS011;51709;54.912;8.316;2024-01-10T01:47:39;1.85;;;1.60;;
65130;SDS011;51709;54.912;8.316;2024-01-10T01:53:01;3.67;;;1.50;;
65130;SDS011;51709;54.912;8.316;2024-01-10T01:58:22;1.23;;;1.00;;
65130;SDS011;51709;54.912;8.316;2024-01-10T02:03:43;0.38;;;0.38;;
65130;SDS011;51709;54.912;8.316;2024-01-10T02:09:04;1.65;;;0.50;;
65130;SDS011;51709;54.912;8.316;2024-01-10T02:14:25;0.50;;;0.50;;
65130;SDS011;51709;54.912;8.316;2024-01-10T02:19:45;0.40;;;0.40;;
65130;SDS011;51709;54.912;8.316;2024-01-10T02:25:09;0.20;;;0.20;;
65130;SDS011;51709;54.912;8.316;2024-01-10T02:30:31;0.40;;;0.40;;
65130;SDS011;51709;54.912;8.316;2024-01-10T02:35:51;3.25;;;0.40;;
65130;SDS011;51709;54.912;8.316;2024-01-10T02:41:12;0.28;;;0.28;;
65130;SDS011;51709;54.912;8.316;2024-01-10T02:46:32;0.40;;;0.40;;
65130;SDS011;51709;54.912;8.316;2024-01-10T02:51:53;0.30;;;0.30;;
65130;SDS011;51709;54.912;8.316;2024-01-10T02:57:14;0.40;;;0.40;;
65130;SDS011;51709;54.912;8.316;2024-01-10T03:02:34;0.52;;;0.52;;
65130;SDS011;51709;54.912;8.316;2024-01-10T03:07:55;0.45;;;0.40;;
65130;SDS011;51709;54.912;8.316;2024-01-10T03:13:16;0.65;;;0.55;;
65130;SDS011;51709;54.912;8.316;2024-01-10T03:18:36;0.40;;;0.40;;
65130;SDS011;51709;54.912;8.316;2024-01-10T03:23:57;0.47;;;0.47;;
65130;SDS011;51709;54.912;8.316;2024-01-10T03:29:19;1.60;;;0.75;;
65130;SDS011;51709;54.912;8.316;2024-01-10T03:34:41;0.20;;;0.20;;
65130;SDS011;51709;54.912;8.316;2024-01-10T03:40:02;0.77;;;0.70;;
65130;SDS011;51709;54.912;8.316;2024-01-10T03:45:23;0.50;;;0.50;;
65130;SDS011;51709;54.912;8.316;2024-01-10T03:50:43;0.40;;;0.40;;
65130;SDS011;51709;54.912;8.316;2024-01-10T03:56:04;1.25;;;0.47;;
65130;SDS011;51709;54.912;8.316;2024-01-10T04:01:25;0.82;;;0.82;;
65130;SDS011;51709;54.912;8.316;2024-01-10T04:06:46;0.35;;;0.35;;
65130;SDS011;51709;54.912;8.316;2024-01-10T04:12:07;0.40;;;0.40;;
65130;SDS011;51709;54.912;8.316;2024-01-10T04:17:28;0.73;;;0.52;;
65130;SDS011;51709;54.912;8.316;2024-01-10T04:22:48;0.60;;;0.60;;
65130;SDS011;51709;54.912;8.316;2024-01-10T04:28:09;0.68;;;0.68;;
65130;SDS011;51709;54.912;8.316;2024-01-10T04:33:30;0.55;;;0.40;;
65130;SDS011;51709;54.912;8.316;2024-01-10T04:38:50;2.83;;;0.47;;
65130;SDS011;51709;54.912;8.316;2024-01-10T04:44:11;0.52;;;0.52;;
65130;SDS011;51709;54.912;8.316;2024-01-10T04:49:32;0.45;;;0.35;;
65130;SDS011;51709;54.912;8.316;2024-01-10T04:54:53;1.38;;;0.65;;
65130;SDS011;51709;54.912;8.316;2024-01-10T05:00:15;1.17;;;0.90;;
65130;SDS011;51709;54.912;8.316;2024-01-10T05:05:36;0.45;;;0.45;;
65130;SDS011;51709;54.912;8.316;2024-01-10T05:10:57;0.20;;;0.20;;
65130;SDS011;51709;54.912;8.316;2024-01-10T05:16:18;0.10;;;0.10;;
65130;SDS011;51709;54.912;8.316;2024-01-10T05:21:38;0.45;;;0.38;;
65130;SDS011;51709;54.912;8.316;2024-01-10T05:27:00;0.52;;;0.52;;
65130;SDS011;51709;54.912;8.316;2024-01-10T05:32:20;1.27;;;0.75;;
65130;SDS011;51709;54.912;8.316;2024-01-10T05:37:41;0.45;;;0.45;;
65130;SDS011;51709;54.912;8.316;2024-01-10T05:43:03;0.57;;;0.40;;
65130;SDS011;51709;54.912;8.316;2024-01-10T05:48:23;0.30;;;0.30;;
65130;SDS011;51709;54.912;8.316;2024-01-10T05:53:44;2.92;;;0.93;;
65130;SDS011;51709;54.912;8.316;2024-01-10T05:59:05;1.38;;;1.13;;
65130;SDS011;51709;54.912;8.316;2024-01-10T06:04:26;0.30;;;0.30;;
65130;SDS011;51709;54.912;8.316;2024-01-10T06:09:48;0.00;;;0.00;;
65130;SDS011;51709;54.912;8.316;2024-01-10T06:15:09;1.00;;;0.57;;
65130;SDS011;51709;54.912;8.316;2024-01-10T06:20:31;1.35;;;0.90;;
65130;SDS011;51709;54.912;8.316;2024-01-10T06:25:52;7.38;;;3.90;;
65130;SDS011;51709;54.912;8.316;2024-01-10T06:31:14;1.27;;;0.88;;
65130;SDS011;51709;54.912;8.316;2024-01-10T06:36:35;1.40;;;0.80;;
65130;SDS011;51709;54.912;8.316;2024-01-10T06:41:56;2.15;;;2.00;;
65130;SDS011;51709;54.912;8.316;2024-01-10T06:47:18;1.30;;;1.20;;
65130;SDS011;51709;54.912;8.316;2024-01-10T06:52:39;3.97;;;2.55;;
65130;SDS011;51709;54.912;8.316;2024-01-10T06:57:59;4.25;;;3.17;;
65130;SDS011;51709;54.912;8.316;2024-01-10T07:03:20;3.15;;;2.67;;
65130;SDS011;51709;54.912;8.316;2024-01-10T07:08:41;3.58;;;2.92;;
65130;SDS011;51709;54.912;8.316;2024-01-10T07:14:06;2.47;;;2.00;;
65130;SDS011;51709;54.912;8.316;2024-01-10T07:19:27;1.08;;;0.98;;
65130;SDS011;51709;54.912;8.316;2024-01-10T07:24:49;1.50;;;0.98;;
65130;SDS011;51709;54.912;8.316;2024-01-10T07:30:10;1.92;;;0.80;;
65130;SDS011;51709;54.912;8.316;2024-01-10T07:40:55;1.08;;;0.77;;
65130;SDS011;51709;54.912;8.316;2024-01-10T07:46:15;1.70;;;1.33;;
65130;SDS011;51709;54.912;8.316;2024-01-10T07:51:36;2.50;;;1.25;;
65130;SDS011;51709;54.912;8.316;2024-01-10T07:56:57;2.03;;;1.52;;
65130;SDS011;51709;54.912;8.316;2024-01-10T08:02:18;4.47;;;1.60;;
65130;SDS011;51709;54.912;8.316;2024-01-10T08:07:39;6.25;;;3.03;;
65130;SDS011;51709;54.912;8.316;2024-01-10T08:13:00;6.45;;;2.85;;
65130;SDS011;51709;54.912;8.316;2024-01-10T08:18:20;6.10;;;3.38;;
65130;SDS011;51709;54.912;8.316;2024-01-10T08:23:41;7.18;;;3.55;;
65130;SDS011;51709;54.912;8.316;2024-01-10T08:29:02;13.32;;;7.10;;
65130;SDS011;51709;54.912;8.316;2024-01-10T08:34:23;5.00;;;3.60;;
65130;SDS011;51709;54.912;8.316;2024-01-10T08:39:44;4.72;;;4.10;;
65130;SDS011;51709;54.912;8.316;2024-01-10T08:45:04;9.70;;;4.85;;
65130;SDS011;51709;54.912;8.316;2024-01-10T08:50:26;11.15;;;6.40;;
65130;SDS011;51709;54.912;8.316;2024-01-10T08:55:46;8.00;;;4.65;;
65130;SDS011;51709;54.912;8.316;2024-01-10T09:01:07;5.40;;;3.58;;
65130;SDS011;51709;54.912;8.316;2024-01-10T09:06:31;6.78;;;4.85;;
65130;SDS011;51709;54.912;8.316;2024-01-10T09:11:52;6.15;;;3.85;;
65130;SDS011;51709;54.912;8.316;2024-01-10T09:17:13;6.25;;;4.05;;
65130;SDS011;51709;54.912;8.316;2024-01-10T09:22:34;6.20;;;3.88;;
65130;SDS011;51709;54.912;8.316;2024-01-10T09:27:55;4.43;;;3.05;;
65130;SDS011;51709;54.912;8.316;2024-01-10T09:33:15;5.68;;;3.10;;
65130;SDS011;51709;54.912;8.316;2024-01-10T09:38:36;4.55;;;3.10;;
65130;SDS011;51709;54.912;8.316;2024-01-10T09:43:57;6.15;;;2.70;;
65130;SDS011;51709;54.912;8.316;2024-01-10T09:49:18;4.60;;;2.97;;
65130;SDS011;51709;54.912;8.316;2024-01-10T09:54:42;5.60;;;2.63;;
65130;SDS011;51709;54.912;8.316;2024-01-10T10:00:06;3.90;;;2.40;;
65130;SDS011;51709;54.912;8.316;2024-01-10T10:05:31;2.78;;;2.22;;
65130;SDS011;51709;54.912;8.316;2024-01-10T10:10:54;2.58;;;2.15;;
65130;SDS011;51709;54.912;8.316;2024-01-10T10:16:15;1.85;;;1.58;;
65130;SDS011;51709;54.912;8.316;2024-01-10T10:21:47;3.85;;;2.47;;
65130;SDS011;51709;54.912;8.316;2024-01-10T10:27:08;4.00;;;2.78;;
65130;SDS011;51709;54.912;8.316;2024-01-10T10:32:33;3.92;;;2.58;;
65130;SDS011;51709;54.912;8.316;2024-01-10T10:37:54;3.45;;;2.03;;
65130;SDS011;51709;54.912;8.316;2024-01-10T10:43:14;4.30;;;2.08;;
65130;SDS011;51709;54.912;8.316;2024-01-10T10:48:40;2.15;;;1.48;;
65130;SDS011;51709;54.912;8.316;2024-01-10T10:54:03;2.10;;;1.35;;
65130;SDS011;51709;54.912;8.316;2024-01-10T10:59:25;3.28;;;1.90;;
65130;SDS011;51709;54.912;8.316;2024-01-10T11:04:47;2.60;;;1.02;;
65130;SDS011;51709;54.912;8.316;2024-01-10T11:10:27;1.50;;;1.35;;
65130;SDS011;51709;54.912;8.316;2024-01-10T11:21:41;1.13;;;0.75;;
65130;SDS011;51709;54.912;8.316;2024-01-10T11:27:13;2.22;;;0.90;;
65130;SDS011;51709;54.912;8.316;2024-01-10T11:32:37;0.90;;;0.90;;
65130;SDS011;51709;54.912;8.316;2024-01-10T11:37:59;1.13;;;0.95;;
65130;SDS011;51709;54.912;8.316;2024-01-10T11:43:20;1.58;;;1.20;;
65130;SDS011;51709;54.912;8.316;2024-01-10T11:48:41;1.42;;;1.08;;
65130;SDS011;51709;54.912;8.316;2024-01-10T11:54:01;1.83;;;1.15;;
65130;SDS011;51709;54.912;8.316;2024-01-10T11:59:22;0.70;;;0.70;;
65130;SDS011;51709;54.912;8.316;2024-01-10T12:04:43;1.35;;;0.90;;
65130;SDS011;51709;54.912;8.316;2024-01-10T12:10:28;0.70;;;0.63;;
65130;SDS011;51709;54.912;8.316;2024-01-10T12:15:50;0.95;;;0.82;;
65130;SDS011;51709;54.912;8.316;2024-01-10T12:21:12;1.20;;;0.80;;
65130;SDS011;51709;54.912;8.316;2024-01-10T12:26:33;0.85;;;0.70;;
65130;SDS011;51709;54.912;8.316;2024-01-10T12:31:54;0.88;;;0.88;;
65130;SDS011;51709;54.912;8.316;2024-01-10T12:37:14;1.20;;;0.82;;
65130;SDS011;51709;54.912;8.316;2024-01-10T12:42:35;0.17;;;0.17;;
65130;SDS011;51709;54.912;8.316;2024-01-10T12:47:56;0.35;;;0.35;;
65130;SDS011;51709;54.912;8.316;2024-01-10T12:53:17;0.40;;;0.40;;
65130;SDS011;51709;54.912;8.316;2024-01-10T12:58:38;0.65;;;0.50;;
65130;SDS011;51709;54.912;8.316;2024-01-10T13:03:59;0.10;;;0.10;;
65130;SDS011;51709;54.912;8.316;2024-01-10T13:09:20;0.10;;;0.10;;
65130;SDS011;51709;54.912;8.316;2024-01-10T13:14:41;1.75;;;1.30;;
65130;SDS011;51709;54.912;8.316;2024-01-10T13:20:02;0.52;;;0.20;;
65130;SDS011;51709;54.912;8.316;2024-01-10T13:25:23;0.35;;;0.15;;
65130;SDS011;51709;54.912;8.316;2024-01-10T13:30:44;0.22;;;0.13;;
65130;SDS011;51709;54.912;8.316;2024-01-10T13:36:05;0.32;;;0.32;;
65130;SDS011;51709;54.912;8.316;2024-01-10T13:41:26;0.45;;;0.30;;
65130;SDS011;51709;54.912;8.316;2024-01-10T13:46:47;0.20;;;0.20;;
65130;SDS011;51709;54.912;8.316;2024-01-10T13:52:11;0.08;;;0.08;;
65130;SDS011;51709;54.912;8.316;2024-01-10T13:57:31;1.45;;;0.40;;
65130;SDS011;51709;54.912;8.316;2024-01-10T14:02:52;0.65;;;0.50;;
65130;SDS011;51709;54.912;8.316;2024-01-10T14:08:19;0.45;;;0.30;;
65130;SDS011;51709;54.912;8.316;2024-01-10T14:13:39;0.40;;;0.40;;
65130;SDS011;51709;54.912;8.316;2024-01-10T14:19:00;1.95;;;0.57;;
65130;SDS011;51709;54.912;8.316;2024-01-10T14:24:21;0.63;;;0.63;;
65130;SDS011;51709;54.912;8.316;2024-01-10T14:29:42;1.38;;;0.88;;
65130;SDS011;51709;54.912;8.316;2024-01-10T14:35:04;1.48;;;1.33;;
65130;SDS011;51709;54.912;8.316;2024-01-10T14:40:29;2.20;;;1.25;;
65130;SDS011;51709;54.912;8.316;2024-01-10T14:45:49;1.15;;;1.02;;
65130;SDS011;51709;54.912;8.316;2024-01-10T14:51:10;1.48;;;0.80;;
65130;SDS011;51709;54.912;8.316;2024-01-10T14:56:31;1.02;;;1.02;;
65130;SDS011;51709;54.912;8.316;2024-01-10T15:01:52;0.95;;;0.85;;
65130;SDS011;51709;54.912;8.316;2024-01-10T15:07:12;2.20;;;1.33;;
65130;SDS011;51709;54.912;8.316;2024-01-10T15:12:33;1.83;;;1.45;;
65130;SDS011;51709;54.912;8.316;2024-01-10T15:17:54;8.52;;;3.67;;
65130;SDS011;51709;54.912;8.316;2024-01-10T15:23:15;0.80;;;0.75;;
65130;SDS011;51709;54.912;8.316;2024-01-10T15:28:35;0.70;;;0.47;;
65130;SDS011;51709;54.912;8.316;2024-01-10T15:33:56;0.30;;;0.30;;
65130;SDS011;51709;54.912;8.316;2024-01-10T15:39:17;0.50;;;0.50;;
65130;SDS011;51709;54.912;8.316;2024-01-10T15:44:41;0.50;;;0.50;;
65130;SDS011;51709;54.912;8.316;2024-01-10T15:50:02;0.30;;;0.30;;
65130;SDS011;51709;54.912;8.316;2024-01-10T15:55:24;0.93;;;0.30;;
65130;SDS011;51709;54.912;8.316;2024-01-10T16:00:47;0.70;;;0.40;;
65130;SDS011;51709;54.912;8.316;2024-01-10T16:06:07;2.15;;;0.50;;
65130;SDS011;51709;54.912;8.316;2024-01-10T16:11:30;0.40;;;0.40;;
65130;SDS011;51709;54.912;8.316;2024-01-10T16:16:51;0.52;;;0.52;;
65130;SDS011;51709;54.912;8.316;2024-01-10T16:22:12;1.60;;;1.17;;
65130;SDS011;51709;54.912;8.316;2024-01-10T16:27:32;2.13;;;0.68;;
65130;SDS011;51709;54.912;8.316;2024-01-10T16:32:53;0.93;;;0.77;;
65130;SDS011;51709;54.912;8.316;2024-01-10T16:38:14;2.85;;;0.98;;
65130;SDS011;51709;54.912;8.316;2024-01-10T16:43:34;0.70;;;0.70;;
65130;SDS011;51709;54.912;8.316;2024-01-10T16:48:55;0.40;;;0.38;;
65130;SDS011;51709;54.912;8.316;2024-01-10T16:54:16;0.80;;;0.55;;
65130;SDS011;51709;54.912;8.316;2024-01-10T16:59:36;1.70;;;1.50;;
65130;SDS011;51709;54.912;8.316;2024-01-10T17:04:57;2.50;;;1.83;;
65130;SDS011;51709;54.912;8.316;2024-01-10T17:10:17;1.73;;;1.17;;
65130;SDS011;51709;54.912;8.316;2024-01-10T17:15:38;1.88;;;0.98;;
65130;SDS011;51709;54.912;8.316;2024-01-10T17:20:58;0.95;;;0.70;;
65130;SDS011;51709;54.912;8.316;2024-01-10T17:26:19;1.42;;;0.93;;
65130;SDS011;51709;54.912;8.316;2024-01-10T17:31:40;0.90;;;0.60;;
65130;SDS011;51709;54.912;8.316;2024-01-10T17:37:00;3.42;;;0.68;;
65130;SDS011;51709;54.912;8.316;2024-01-10T17:42:22;3.25;;;1.25;;
65130;SDS011;51709;54.912;8.316;2024-01-10T17:47:43;0.75;;;0.60;;
65130;SDS011;51709;54.912;8.316;2024-01-10T17:53:04;1.75;;;0.95;;
65130;SDS011;51709;54.912;8.316;2024-01-10T17:58:24;1.95;;;1.05;;
65130;SDS011;51709;54.912;8.316;2024-01-10T18:03:45;1.55;;;1.00;;
65130;SDS011;51709;54.912;8.316;2024-01-10T18:09:10;4.20;;;1.75;;
65130;SDS011;51709;54.912;8.316;2024-01-10T18:14:30;2.50;;;1.52;;
65130;SDS011;51709;54.912;8.316;2024-01-10T18:19:54;0.87;;;0.83;;
65130;SDS011;51709;54.912;8.316;2024-01-10T18:25:15;4.68;;;1.55;;
65130;SDS011;51709;54.912;8.316;2024-01-10T18:30:36;1.95;;;1.30;;
65130;SDS011;51709;54.912;8.316;2024-01-10T18:35:56;2.13;;;1.33;;
65130;SDS011;51709;54.912;8.316;2024-01-10T18:41:17;2.58;;;1.42;;
65130;SDS011;51709;54.912;8.316;2024-01-10T18:46:37;1.55;;;1.35;;
65130;SDS011;51709;54.912;8.316;2024-01-10T18:51:58;1.92;;;1.48;;
65130;SDS011;51709;54.912;8.316;2024-01-10T18:57:18;4.82;;;1.73;;
65130;SDS011;51709;54.912;8.316;2024-01-10T19:02:40;9.32;;;2.10;;
65130;SDS011;51709;54.912;8.316;2024-01-10T19:08:00;3.65;;;1.83;;
65130;SDS011;51709;54.912;8.316;2024-01-10T19:13:21;2.78;;;1.95;;
65130;SDS011;51709;54.912;8.316;2024-01-10T19:18:41;4.82;;;2.95;;
65130;SDS011;51709;54.912;8.316;2024-01-10T19:24:02;5.55;;;2.97;;
65130;SDS011;51709;54.912;8.316;2024-01-10T19:29:23;1.02;;;0.85;;
65130;SDS011;51709;54.912;8.316;2024-01-10T19:34:43;5.55;;;1.20;;
65130;SDS011;51709;54.912;8.316;2024-01-10T19:40:04;1.90;;;1.40;;
65130;SDS011;51709;54.912;8.316;2024-01-10T19:45:28;7.00;;;3.42;;
65130;SDS011;51709;54.912;8.316;2024-01-10T19:50:49;6.80;;;3.53;;
65130;SDS011;51709;54.912;8.316;2024-01-10T19:56:10;3.53;;;2.30;;
65130;SDS011;51709;54.912;8.316;2024-01-10T20:01:30;0.50;;;0.50;;
65130;SDS011;51709;54.912;8.316;2024-01-10T20:06:51;0.50;;;0.47;;
65130;SDS011;51709;54.912;8.316;2024-01-10T20:12:12;1.50;;;0.52;;
65130;SDS011;51709;54.912;8.316;2024-01-10T20:17:33;0.60;;;0.30;;
65130;SDS011;51709;54.912;8.316;2024-01-10T20:22:54;0.32;;;0.32;;
65130;SDS011;51709;54.912;8.316;2024-01-10T20:28:14;0.15;;;0.15;;
65130;SDS011;51709;54.912;8.316;2024-01-10T20:33:35;0.52;;;0.52;;
65130;SDS011;51709;54.912;8.316;2024-01-10T20:38:58;0.32;;;0.32;;
65130;SDS011;51709;54.912;8.316;2024-01-10T20:44:18;0.70;;;0.70;;
65130;SDS011;51709;54.912;8.316;2024-01-10T20:49:39;0.40;;;0.40;;
65130;SDS011;51709;54.912;8.316;2024-01-10T20:54:59;0.57;;;0.30;;
65130;SDS011;51709;54.912;8.316;2024-01-10T21:00:22;2.15;;;0.50;;
65130;SDS011;51709;54.912;8.316;2024-01-10T21:05:43;0.43;;;0.43;;
65130;SDS011;51709;54.912;8.316;2024-01-10T21:11:05;1.00;;;0.52;;
65130;SDS011;51709;54.912;8.316;2024-01-10T21:16:26;0.20;;;0.20;;
65130;SDS011;51709;54.912;8.316;2024-01-10T21:21:47;1.45;;;0.80;;
65130;SDS011;51709;54.912;8.316;2024-01-10T21:27:08;0.82;;;0.60;;
65130;SDS011;51709;54.912;8.316;2024-01-10T21:32:29;0.40;;;0.32;;
65130;SDS011;51709;54.912;8.316;2024-01-10T21:37:50;1.38;;;0.52;;
65130;SDS011;51709;54.912;8.316;2024-01-10T21:43:10;1.13;;;0.73;;
65130;SDS011;51709;54.912;8.316;2024-01-10T21:48:31;0.80;;;0.65;;
65130;SDS011;51709;54.912;8.316;2024-01-10T21:53:51;1.83;;;0.98;;
65130;SDS011;51709;54.912;8.316;2024-01-10T21:59:12;0.50;;;0.50;;
65130;SDS011;51709;54.912;8.316;2024-01-10T22:04:32;0.88;;;0.63;;
65130;SDS011;51709;54.912;8.316;2024-01-10T22:09:53;0.30;;;0.30;;
65130;SDS011;51709;54.912;8.316;2024-01-10T22:15:14;0.30;;;0.30;;
65130;SDS011;51709;54.912;8.316;2024-01-10T22:20:35;2.28;;;0.60;;
65130;SDS011;51709;54.912;8.316;2024-01-10T22:25:56;1.63;;;1.13;;
65130;SDS011;51709;54.912;8.316;2024-01-10T22:31:16;5.65;;;2.13;;
65130;SDS011;51709;54.912;8.316;2024-01-10T22:36:37;7.25;;;1.00;;
65130;SDS011;51709;54.912;8.316;2024-01-10T22:41:58;0.68;;;0.68;;
65130;SDS011;51709;54.912;8.316;2024-01-10T22:47:19;1.27;;;1.13;;
65130;SDS011;51709;54.912;8.316;2024-01-10T22:52:39;2.28;;;1.27;;
65130;SDS011;51709;54.912;8.316;2024-01-10T22:58:00;0.77;;;0.77;;
65130;SDS011;51709;54.912;8.316;2024-01-10T23:03:20;10.00;;;1.30;;
65130;SDS011;51709;54.912;8.316;2024-01-10T23:08:41;0.77;;;0.77;;
65130;SDS011;51709;54.912;8.316;2024-01-10T23:14:02;2.97;;;1.20;;
65130;SDS011;51709;54.912;8.316;2024-01-10T23:19:22;3.28;;;1.20;;
65130;SDS011;51709;54.912;8.316;2024-01-10T23:24:43;1.25;;;0.60;;
65130;SDS011;51709;54.912;8.316;2024-01-10T23:30:05;0.40;;;0.40;;
65130;SDS011;51709;54.912;8.316;2024-01-10T23:35:28;0.70;;;0.70;;
65130;SDS011;51709;54.912;8.316;2024-01-10T23:41:04;0.75;;;0.50;;
65130;SDS011;51709;54.912;8.316;2024-01-10T23:46:25;0.45;;;0.40;;
65130;SDS011;51709;54.912;8.316;2024-01-10T23:51:45;0.63;;;0.50;;
65130;SDS011;51709;54.912;8.316;2024-01-10T23:57:08;1.45;;;0.50;;
